Time;durP1;ratioP1;P1;durP2;ratioP2;P2;SDS_P1;SDS_P2;PMS_P1;PMS_P2;Temp;Humidity;BMP_temperature;BMP_pressure;BME280_temperature;BME280_humidity;BME280_pressure;Samples;Min_cycle;Max_cycle;Signal;HPM_P1;HPM_P2
2023/08/26 00:01:10;;;;;;;30.02;18.95;;;;;;;15.36;100.00;100855.53;5078569;28;20395;-66
2023/08/26 00:03:35;;;;;;;29.27;19.27;;;;;;;15.32;100.00;100863.56;5079157;28;20112;-66
2023/08/26 00:06:00;;;;;;;31.20;20.35;;;;;;;15.34;100.00;100863.53;5078544;28;20024;-65
2023/08/26 00:08:26;;;;;;;32.28;20.90;;;;;;;15.25;100.00;100866.34;5078522;28;20154;-67
2023/08/26 00:10:51;;;;;;;29.50;18.98;;;;;;;15.04;100.00;100871.06;5078817;28;20421;-67
2023/08/26 00:13:17;;;;;;;27.65;17.20;;;;;;;14.87;100.00;100870.41;5078406;28;20091;-66
2023/08/26 00:15:42;;;;;;;27.67;16.58;;;;;;;14.74;100.00;100862.59;5076003;28;20025;-68
2023/08/26 00:18:08;;;;;;;24.77;13.30;;;;;;;14.68;100.00;100849.38;5075561;28;20028;-65
2023/08/26 00:20:34;;;;;;;23.77;12.15;;;;;;;14.67;100.00;100849.38;5075178;28;20037;-67
2023/08/26 00:23:00;;;;;;;24.17;12.35;;;;;;;14.67;100.00;100847.59;5075264;28;20036;-67
2023/08/26 00:25:25;;;;;;;23.45;11.00;;;;;;;14.66;100.00;100845.81;5075353;28;20036;-67
2023/08/26 00:27:50;;;;;;;22.35;10.55;;;;;;;14.64;100.00;100845.84;5075239;28;20499;-66
2023/08/26 00:30:16;;;;;;;22.98;10.98;;;;;;;14.61;100.00;100845.00;5075272;28;20467;-67
2023/08/26 00:32:41;;;;;;;23.15;10.80;;;;;;;14.62;100.00;100857.41;5090965;28;20490;-66
2023/08/26 00:35:06;;;;;;;24.52;10.82;;;;;;;14.57;100.00;100848.59;5075159;28;20028;-68
2023/08/26 00:37:32;;;;;;;22.98;10.60;;;;;;;14.51;100.00;100848.66;5075124;28;20028;-67
2023/08/26 00:39:57;;;;;;;23.55;10.00;;;;;;;14.50;100.00;100847.75;5075109;28;20481;-65
2023/08/26 00:42:22;;;;;;;20.67;9.13;;;;;;;14.38;100.00;100839.94;5074884;28;20028;-66
2023/08/26 00:44:48;;;;;;;21.58;9.32;;;;;;;14.33;100.00;100845.31;5075301;28;20032;-66
2023/08/26 00:47:13;;;;;;;20.60;8.98;;;;;;;14.23;100.00;100847.19;5074684;28;20031;-66
2023/08/26 00:49:39;;;;;;;24.33;9.40;;;;;;;14.17;100.00;100846.34;5075020;28;20056;-66
2023/08/26 00:52:05;;;;;;;20.23;8.55;;;;;;;14.16;100.00;100850.81;5074913;28;20433;-66
2023/08/26 00:54:35;;;;;;;21.30;8.98;;;;;;;14.02;100.00;100842.94;5074587;28;20130;-67
2023/08/26 00:57:02;;;;;;;21.42;8.50;;;;;;;13.95;100.00;100852.78;5074642;28;20037;-67
2023/08/26 00:59:28;;;;;;;20.60;8.00;;;;;;;13.86;100.00;100854.63;5074709;28;20024;-67
2023/08/26 01:01:54;;;;;;;21.83;8.05;;;;;;;13.77;100.00;100863.56;5074527;28;20062;-66
2023/08/26 01:04:20;;;;;;;19.67;7.40;;;;;;;13.71;100.00;100858.31;5074515;28;20029;-63
2023/08/26 01:06:45;;;;;;;20.67;7.03;;;;;;;13.62;100.00;100851.31;5074653;28;20031;-65
2023/08/26 01:09:11;;;;;;;19.35;7.03;;;;;;;13.52;100.00;100845.19;5074627;28;20391;-66
2023/08/26 01:12:04;;;;;;;21.00;6.72;;;;;;;13.42;100.00;100852.31;5074700;28;20107;-66
2023/08/26 01:14:34;;;;;;;18.63;6.60;;;;;;;13.32;100.00;100855.03;5073204;28;20402;-66
2023/08/26 01:17:03;;;;;;;20.08;6.82;;;;;;;13.29;100.00;100858.59;5074277;28;20476;-67
2023/08/26 01:19:40;;;;;;;21.02;6.40;;;;;;;13.19;100.00;100857.78;5074301;28;20035;-66
2023/08/26 01:22:07;;;;;;;20.48;6.43;;;;;;;13.11;100.00;100851.63;5074095;28;20069;-67
2023/08/26 01:24:34;;;;;;;19.45;6.18;;;;;;;13.12;100.00;100864.00;5073984;28;20120;-64
2023/08/26 01:26:59;;;;;;;19.80;6.05;;;;;;;13.00;100.00;100864.06;5074052;28;20029;-67
2023/08/26 01:29:25;;;;;;;19.38;5.88;;;;;;;12.93;100.00;100860.59;5073874;28;20035;-66
2023/08/26 01:32:05;;;;;;;19.60;5.88;;;;;;;12.87;100.00;100866.78;5073858;28;20029;-66
2023/08/26 01:34:33;;;;;;;20.05;6.38;;;;;;;12.80;100.00;100872.13;5073864;28;20029;-66
2023/08/26 01:37:01;;;;;;;19.88;6.40;;;;;;;12.70;100.00;100860.69;5074115;28;20035;-66
2023/08/26 01:39:27;;;;;;;20.45;6.68;;;;;;;12.70;100.00;100861.56;5072393;28;20025;-71
2023/08/26 01:41:54;;;;;;;21.75;6.18;;;;;;;12.70;100.00;100856.25;5073735;28;20028;-70
2023/08/26 01:44:21;;;;;;;19.08;6.18;;;;;;;12.65;100.00;100862.47;5073886;28;20475;-69
2023/08/26 01:46:47;;;;;;;18.83;6.00;;;;;;;12.61;100.00;100858.94;5073847;28;20431;-71
2023/08/26 01:49:13;;;;;;;19.23;6.03;;;;;;;12.59;100.00;100867.78;5073583;28;20030;-71
2023/08/26 01:51:39;;;;;;;19.60;6.13;;;;;;;12.58;100.00;100868.66;5073781;28;20119;-71
2023/08/26 01:54:07;;;;;;;19.00;5.80;;;;;;;12.52;100.00;100866.91;5073481;28;20468;-71
2023/08/26 01:56:33;;;;;;;19.95;6.00;;;;;;;12.49;100.00;100872.22;5073384;28;20058;-70
2023/08/26 01:58:59;;;;;;;19.15;5.97;;;;;;;12.41;100.00;100868.72;5073806;28;20032;-70
2023/08/26 02:01:24;;;;;;;19.23;6.13;;;;;;;12.35;100.00;100877.59;5073242;28;20090;-71
2023/08/26 02:03:49;;;;;;;20.10;6.00;;;;;;;12.33;100.00;100869.66;5088888;28;20067;-71
2023/08/26 02:06:15;;;;;;;18.60;5.80;;;;;;;12.36;100.00;100860.78;5073453;28;20048;-71
2023/08/26 02:08:40;;;;;;;21.02;6.07;;;;;;;12.36;100.00;100869.63;5073246;28;20112;-71
2023/08/26 02:11:06;;;;;;;18.83;5.65;;;;;;;12.32;100.00;100869.63;5073301;28;20036;-71
2023/08/26 02:13:31;;;;;;;18.42;5.70;;;;;;;12.25;100.00;100854.66;5073016;28;20059;-71
2023/08/26 02:15:57;;;;;;;17.85;5.70;;;;;;;12.23;100.00;100854.63;5072998;28;20060;-71
2023/08/26 02:18:22;;;;;;;19.73;6.00;;;;;;;12.18;100.00;100856.41;5073361;28;20518;-71
2023/08/26 02:20:48;;;;;;;16.27;5.20;;;;;;;12.15;100.00;100854.66;5072931;28;20082;-71
2023/08/26 02:23:14;;;;;;;19.98;5.38;;;;;;;12.12;100.00;100856.44;5072956;28;20020;-68
2023/08/26 02:25:40;;;;;;;17.85;5.10;;;;;;;12.13;100.00;100859.09;5073196;28;20067;-65
2023/08/26 02:28:05;;;;;;;16.73;5.03;;;;;;;12.10;100.00;100860.84;5072902;28;20048;-68
2023/08/26 02:30:31;;;;;;;15.65;4.85;;;;;;;12.09;100.00;100854.66;5072852;28;20033;-71
2023/08/26 02:32:56;;;;;;;19.73;5.30;;;;;;;12.05;100.00;100855.56;5073025;28;20055;-71
2023/08/26 02:35:22;;;;;;;16.98;4.93;;;;;;;11.98;100.00;100852.00;5072778;28;20065;-71
2023/08/26 02:37:47;;;;;;;16.67;5.10;;;;;;;11.99;100.00;100856.44;5072627;28;20024;-69
2023/08/26 02:40:12;;;;;;;20.40;4.85;;;;;;;11.99;100.00;100859.09;5072727;28;20037;-68
2023/08/26 02:42:38;;;;;;;19.00;5.18;;;;;;;11.99;100.00;100861.75;5072698;28;20027;-68
2023/08/26 02:45:04;;;;;;;18.67;5.00;;;;;;;11.95;100.00;100852.03;5071403;28;20039;-72
2023/08/26 02:47:30;;;;;;;17.95;5.03;;;;;;;11.90;100.00;100855.53;5072832;28;20123;-71
2023/08/26 02:49:55;;;;;;;16.80;5.10;;;;;;;11.91;100.00;100850.25;5072943;28;20524;-71
2023/08/26 02:52:21;;;;;;;18.38;5.22;;;;;;;11.88;100.00;100844.06;5072899;28;20089;-71
2023/08/26 02:54:46;;;;;;;17.98;4.90;;;;;;;11.81;100.00;100854.66;5072607;28;20511;-71
2023/08/26 02:57:11;;;;;;;17.25;4.85;;;;;;;11.83;100.00;100844.94;5072589;28;20059;-71
2023/08/26 02:59:37;;;;;;;16.95;4.97;;;;;;;11.84;100.00;100843.19;5072599;28;20036;-71
2023/08/26 03:02:03;;;;;;;16.77;4.82;;;;;;;11.89;100.00;100836.13;5072762;28;20048;-71
2023/08/26 03:04:33;;;;;;;17.67;4.95;;;;;;;11.82;100.00;100851.16;5072487;28;20036;-71
2023/08/26 03:06:58;;;;;;;18.38;5.28;;;;;;;11.81;100.00;100852.03;5072610;28;20082;-70
2023/08/26 03:09:25;;;;;;;16.73;5.15;;;;;;;11.80;100.00;100857.31;5072416;28;20025;-67
2023/08/26 03:11:51;;;;;;;18.50;5.25;;;;;;;11.78;100.00;100848.47;5072447;28;20033;-71
2023/08/26 03:14:16;;;;;;;16.27;5.05;;;;;;;11.76;100.00;100852.91;5072419;28;20400;-69
2023/08/26 03:16:42;;;;;;;17.17;5.28;;;;;;;11.77;100.00;100850.25;5072391;28;20048;-67
2023/08/26 03:19:07;;;;;;;18.80;5.30;;;;;;;11.75;100.00;100854.69;5072354;28;20115;-70
2023/08/26 03:21:32;;;;;;;22.25;5.97;;;;;;;11.74;100.00;100859.97;5072401;28;20074;-68
2023/08/26 03:23:58;;;;;;;17.60;4.88;;;;;;;11.75;100.00;100856.41;5071051;28;20025;-67
2023/08/26 03:26:23;;;;;;;17.42;4.75;;;;;;;11.69;100.00;100858.22;5072229;28;20024;-70
2023/08/26 03:28:49;;;;;;;17.73;5.10;;;;;;;11.67;100.00;100853.78;5072756;28;20039;-70
2023/08/26 03:31:14;;;;;;;17.88;4.90;;;;;;;11.72;100.00;100857.28;5072225;28;20120;-71
2023/08/26 03:33:40;;;;;;;18.10;5.00;;;;;;;11.69;100.00;100852.91;5072175;28;20032;-71
2023/08/26 03:36:06;;;;;;;18.58;5.05;;;;;;;11.69;100.00;100862.59;5072396;28;20052;-68
2023/08/26 03:38:34;;;;;;;17.98;5.20;;;;;;;11.63;100.00;100860.81;5072097;28;20033;-71
2023/08/26 03:41:04;;;;;;;17.30;5.20;;;;;;;11.61;100.00;100861.75;5072095;28;20033;-71
2023/08/26 03:43:29;;;;;;;19.73;5.35;;;;;;;11.57;100.00;100859.97;5072560;28;20414;-70
2023/08/26 03:45:55;;;;;;;18.63;5.22;;;;;;;11.54;100.00;100862.63;5071989;28;20029;-68
2023/08/26 03:48:20;;;;;;;18.13;5.43;;;;;;;11.55;100.00;100869.66;5072272;28;20112;-71
2023/08/26 03:50:53;;;;;;;17.10;5.10;;;;;;;11.52;100.00;100867.91;5073276;28;20490;-71
2023/08/26 03:53:19;;;;;;;17.33;5.45;;;;;;;11.48;100.00;100868.78;5075831;28;20059;-69
2023/08/26 03:55:45;;;;;;;18.83;5.60;;;;;;;11.43;100.00;100868.78;5075946;28;20049;-71
2023/08/26 03:58:11;;;;;;;19.10;5.65;;;;;;;11.41;100.00;100875.81;5075942;28;20024;-69
2023/08/26 04:00:37;;;;;;;18.17;5.90;;;;;;;11.37;100.00;100881.13;5075579;28;20037;-71
2023/08/26 04:03:06;;;;;;;20.05;5.78;;;;;;;11.33;100.00;100875.81;5075612;28;20024;-66
2023/08/26 04:05:32;;;;;;;19.02;5.60;;;;;;;11.31;100.00;100880.25;5075776;28;20032;-70
2023/08/26 04:07:59;;;;;;;18.90;5.57;;;;;;;11.25;100.00;100879.34;5075494;28;20028;-71
2023/08/26 04:10:24;;;;;;;18.65;6.05;;;;;;;11.24;100.00;100880.19;5075452;28;20035;-70
2023/08/26 04:12:49;;;;;;;19.55;5.65;;;;;;;11.25;100.00;100880.19;5075447;28;20029;-69
2023/08/26 04:15:15;;;;;;;19.73;5.97;;;;;;;11.29;100.00;100883.75;5075428;28;20476;-71
2023/08/26 04:17:41;;;;;;;18.15;5.80;;;;;;;11.26;100.00;100889.03;5075345;28;20530;-70
2023/08/26 04:20:07;;;;;;;18.05;5.63;;;;;;;11.23;100.00;100894.34;5075407;28;20070;-67
2023/08/26 04:22:33;;;;;;;18.33;5.90;;;;;;;11.21;100.00;100896.06;5075293;28;20036;-70
2023/08/26 04:24:58;;;;;;;18.40;6.03;;;;;;;11.16;100.00;100896.94;5075291;28;20540;-71
2023/08/26 04:27:24;;;;;;;16.95;5.72;;;;;;;11.12;100.00;100902.22;5074230;28;20028;-70
2023/08/26 04:29:49;;;;;;;17.95;6.00;;;;;;;11.11;100.00;100906.63;5075183;28;20032;-70
2023/08/26 04:32:14;;;;;;;18.50;5.80;;;;;;;11.05;100.00;100906.59;5075268;28;20414;-71
2023/08/26 04:34:40;;;;;;;20.20;6.18;;;;;;;10.97;100.00;100903.06;5075117;28;20052;-70
2023/08/26 04:37:05;;;;;;;18.05;5.85;;;;;;;10.96;100.00;100906.56;5075273;28;20060;-70
2023/08/26 04:39:30;;;;;;;20.08;6.22;;;;;;;10.96;100.00;100906.56;5075164;28;20028;-69
2023/08/26 04:41:56;;;;;;;17.30;5.78;;;;;;;11.03;100.00;100912.78;5074922;28;20490;-68
2023/08/26 04:44:21;;;;;;;18.40;5.63;;;;;;;11.07;100.00;100918.09;5074895;28;20478;-69
2023/08/26 04:46:47;;;;;;;19.05;5.80;;;;;;;11.06;100.00;100918.94;5075044;28;20064;-69
2023/08/26 04:49:12;;;;;;;18.30;6.00;;;;;;;11.02;100.00;100911.88;5074896;28;20031;-70
2023/08/26 04:51:38;;;;;;;18.88;5.72;;;;;;;11.04;100.00;100920.72;5074705;28;20100;-70
2023/08/26 04:54:05;;;;;;;18.40;5.47;;;;;;;11.05;100.00;100917.19;5074850;28;20056;-70
2023/08/26 04:56:30;;;;;;;16.80;5.55;;;;;;;11.00;100.00;100921.59;5074660;28;20065;-69
2023/08/26 04:58:55;;;;;;;18.33;5.90;;;;;;;11.04;100.00;100926.00;5074522;28;20460;-71
2023/08/26 05:01:21;;;;;;;18.23;5.82;;;;;;;11.04;100.00;100931.31;5074257;28;20475;-70
2023/08/26 05:03:46;;;;;;;17.70;5.40;;;;;;;11.06;100.00;100939.25;5074478;28;20031;-69
2023/08/26 05:06:12;;;;;;;17.67;5.47;;;;;;;11.06;100.00;100940.13;5074755;28;20036;-68
2023/08/26 05:08:37;;;;;;;19.58;5.40;;;;;;;11.07;100.00;100933.09;5074654;28;20074;-69
2023/08/26 05:11:05;;;;;;;15.77;5.30;;;;;;;11.15;100.00;100947.22;5074550;28;20049;-68
2023/08/26 05:13:31;;;;;;;18.65;5.40;;;;;;;11.20;100.00;100952.50;5074378;28;20047;-71
2023/08/26 05:15:56;;;;;;;17.85;5.50;;;;;;;11.22;100.00;100945.47;5073263;28;20124;-65
2023/08/26 05:18:21;;;;;;;17.60;5.07;;;;;;;11.22;100.00;100943.69;5074177;28;20025;-66
2023/08/26 05:20:47;;;;;;;18.05;5.32;;;;;;;11.24;100.00;100954.28;5074286;28;20382;-66
2023/08/26 05:23:14;;;;;;;17.85;5.03;;;;;;;11.24;100.00;100947.25;5074433;28;20030;-65
2023/08/26 05:25:39;;;;;;;17.95;5.38;;;;;;;11.25;100.00;100945.47;5074144;28;20039;-67
2023/08/26 05:28:05;;;;;;;17.20;5.22;;;;;;;11.29;100.00;100936.69;5074247;28;20112;-66
2023/08/26 05:30:30;;;;;;;18.27;5.40;;;;;;;11.32;100.00;100942.84;5073939;28;20038;-67
2023/08/26 05:32:56;;;;;;;19.90;5.55;;;;;;;11.39;100.00;100949.06;5073965;28;20032;-67
2023/08/26 05:35:21;;;;;;;15.30;5.00;;;;;;;11.45;100.00;100943.78;5074034;28;20555;-66
2023/08/26 05:37:47;;;;;;;16.88;4.95;;;;;;;11.50;100.00;100944.69;5073811;28;20032;-65
2023/08/26 05:40:13;;;;;;;18.08;5.43;;;;;;;11.50;100.00;100936.75;5073744;28;20038;-66
2023/08/26 05:42:39;;;;;;;17.63;5.45;;;;;;;11.56;100.00;100941.13;5073933;28;20059;-64
2023/08/26 05:45:06;;;;;;;17.40;5.30;;;;;;;11.62;100.00;100942.91;5073691;28;20479;-65
2023/08/26 05:47:31;;;;;;;17.73;5.13;;;;;;;11.68;100.00;100940.28;5073845;28;20101;-66
2023/08/26 05:49:58;;;;;;;18.00;5.38;;;;;;;11.71;100.00;100939.38;5073794;28;20103;-66
2023/08/26 05:52:24;;;;;;;18.08;5.25;;;;;;;11.75;100.00;100931.47;5073593;28;20033;-65
2023/08/26 05:54:49;;;;;;;20.08;5.35;;;;;;;11.82;100.00;100920.00;5073694;28;20036;-64
2023/08/26 05:57:14;;;;;;;18.15;5.30;;;;;;;11.91;100.00;100923.53;5073547;28;20035;-67
2023/08/26 05:59:40;;;;;;;17.63;5.25;;;;;;;11.92;100.00;100926.16;5073340;28;20032;-66
2023/08/26 06:02:05;;;;;;;19.70;5.35;;;;;;;11.95;100.00;100928.84;5073515;28;20062;-65
2023/08/26 06:04:31;;;;;;;20.58;5.20;;;;;;;12.01;100.00;100930.63;5073278;28;20020;-66
2023/08/26 06:06:57;;;;;;;19.50;5.22;;;;;;;12.08;100.00;100923.56;5073208;28;20033;-67
2023/08/26 06:09:23;;;;;;;18.40;5.40;;;;;;;12.12;100.00;100927.97;5073377;28;20032;-66
2023/08/26 06:11:49;;;;;;;21.23;5.80;;;;;;;12.15;100.00;100920.91;5073221;28;20032;-65
2023/08/26 06:14:14;;;;;;;17.30;5.30;;;;;;;12.16;100.00;100922.66;5072248;28;20102;-65
2023/08/26 06:16:39;;;;;;;18.42;5.13;;;;;;;12.27;100.00;100916.47;5073509;28;20033;-66
2023/08/26 06:19:05;;;;;;;19.20;5.40;;;;;;;12.27;100.00;100916.47;5071895;28;20456;-64
2023/08/26 06:21:30;;;;;;;17.83;5.22;;;;;;;12.31;100.00;100912.94;5072902;28;20028;-63
2023/08/26 06:23:55;;;;;;;21.85;5.78;;;;;;;12.37;100.00;100916.44;5072247;28;20029;-64
2023/08/26 06:26:21;;;;;;;19.73;5.40;;;;;;;12.44;100.00;100917.31;5071990;28;20124;-61
2023/08/26 06:28:46;;;;;;;21.38;5.95;;;;;;;12.51;100.00;100916.44;5072858;28;20039;-62
2023/08/26 06:31:12;;;;;;;19.73;5.45;;;;;;;12.53;100.00;100917.28;5072905;28;20158;-63
2023/08/26 06:33:37;;;;;;;20.60;5.50;;;;;;;12.51;100.00;100919.06;5072783;28;20391;-62
2023/08/26 06:36:03;;;;;;;18.60;5.50;;;;;;;12.59;100.00;100916.41;5071512;28;20044;-61
2023/08/26 06:38:29;;;;;;;20.00;5.57;;;;;;;12.66;100.00;100919.94;5072352;28;20522;-61
2023/08/26 06:40:57;;;;;;;19.15;5.50;;;;;;;12.65;100.00;100916.38;5072598;28;20036;-62
2023/08/26 06:43:23;;;;;;;20.50;5.55;;;;;;;12.71;100.00;100910.16;5072612;28;20024;-61
2023/08/26 06:45:49;;;;;;;21.50;5.75;;;;;;;12.76;100.00;100913.69;5072771;28;20024;-67
2023/08/26 06:48:16;;;;;;;18.35;5.30;;;;;;;12.81;100.00;100911.91;5072435;28;20024;-69
2023/08/26 06:50:41;;;;;;;18.55;5.40;;;;;;;12.87;100.00;100903.94;5072374;28;20348;-67
2023/08/26 06:53:07;;;;;;;18.75;5.43;;;;;;;12.94;100.00;100901.25;5073071;28;20025;-69
2023/08/26 06:55:32;;;;;;;17.77;5.22;;;;;;;13.06;100.00;100903.84;5067219;28;20047;-68
2023/08/26 06:57:58;;;;;;;18.58;5.00;;;;;;;13.09;100.00;100893.19;5072635;28;20098;-68
2023/08/26 07:00:23;;;;;;;19.25;5.15;;;;;;;13.14;100.00;100903.81;5072231;28;20032;-69
2023/08/26 07:02:49;;;;;;;18.80;4.90;;;;;;;13.21;100.00;100895.81;5072558;28;20422;-69
2023/08/26 07:05:14;;;;;;;19.50;4.93;;;;;;;13.26;100.00;100909.03;5072720;28;20024;-69
2023/08/26 07:07:40;;;;;;;20.55;5.10;;;;;;;13.31;100.00;100922.28;5072475;28;20097;-69
2023/08/26 07:10:06;;;;;;;17.60;4.70;;;;;;;13.40;100.00;100917.84;5072373;28;20033;-68
2023/08/26 07:12:31;;;;;;;17.63;4.55;;;;;;;13.47;100.00;100908.06;5072560;28;20417;-68
2023/08/26 07:14:56;;;;;;;18.92;4.80;;;;;;;13.53;100.00;100908.03;5072230;28;20044;-68
2023/08/26 07:17:22;;;;;;;17.52;4.63;;;;;;;13.63;100.00;100907.94;5072288;28;20078;-68
2023/08/26 07:19:48;;;;;;;17.42;4.55;;;;;;;13.69;100.00;100924.75;5072545;28;20352;-69
2023/08/26 07:22:13;;;;;;;17.02;4.63;;;;;;;13.77;100.00;100914.94;5072143;28;20494;-64
2023/08/26 07:24:38;;;;;;;19.05;4.68;;;;;;;13.85;100.00;100909.56;5071712;28;20033;-63
2023/08/26 07:27:04;;;;;;;16.83;4.35;;;;;;;13.93;100.00;100910.34;5076381;28;20111;-61
2023/08/26 07:29:34;;;;;;;16.13;4.10;;;;;;;14.05;100.00;100916.47;5076187;28;20028;-67
2023/08/26 07:31:59;;;;;;;15.32;4.10;;;;;;;14.06;100.00;100919.13;5076048;28;20398;-63
2023/08/26 07:34:25;;;;;;;15.68;4.32;;;;;;;14.13;100.00;100910.19;5074949;28;20035;-61
2023/08/26 07:36:51;;;;;;;16.90;4.32;;;;;;;14.16;100.00;100914.59;5075906;28;20040;-63
2023/08/26 07:39:16;;;;;;;16.42;4.20;;;;;;;14.22;100.00;100914.53;5076222;28;20108;-69
2023/08/26 07:41:42;;;;;;;15.85;3.90;;;;;;;14.30;100.00;100918.00;5076301;28;20071;-62
2023/08/26 07:44:07;;;;;;;14.18;4.00;;;;;;;14.39;100.00;100921.50;5075834;28;20040;-68
2023/08/26 07:46:32;;;;;;;15.88;4.00;;;;;;;14.46;100.00;100923.19;5075829;28;20052;-65
2023/08/26 07:48:58;;;;;;;16.90;4.07;;;;;;;14.54;100.00;100918.66;5075819;28;20024;-67
2023/08/26 07:51:23;;;;;;;16.33;3.92;;;;;;;14.66;100.00;100925.63;5076184;28;20386;-63
2023/08/26 07:53:48;;;;;;;15.57;4.43;;;;;;;14.75;100.00;100919.34;5075972;28;20021;-67
2023/08/26 07:56:14;;;;;;;15.05;3.83;;;;;;;14.78;100.00;100924.63;5075706;28;20025;-67
2023/08/26 07:58:39;;;;;;;14.65;3.80;;;;;;;14.82;100.00;100913.94;5075638;28;20036;-68
2023/08/26 08:01:05;;;;;;;17.38;3.97;;;;;;;14.88;100.00;100922.72;5075800;28;20037;-67
2023/08/26 08:03:30;;;;;;;14.07;3.78;;;;;;;15.03;100.00;100926.97;5075618;28;20203;-66
2023/08/26 08:05:56;;;;;;;14.95;3.60;;;;;;;15.08;100.00;100923.34;5075596;28;20107;-68
2023/08/26 08:08:22;;;;;;;13.10;3.65;;;;;;;15.19;100.00;100915.25;5075775;28;20086;-66
2023/08/26 08:10:49;;;;;;;13.82;3.42;;;;;;;15.32;100.00;100927.47;5075449;28;20029;-66
2023/08/26 08:13:15;;;;;;;14.65;3.50;;;;;;;15.53;100.00;100920.09;5075182;28;20052;-64
2023/08/26 08:15:40;;;;;;;14.32;3.40;;;;;;;15.68;100.00;100914.53;5075628;28;20040;-64
2023/08/26 08:18:06;;;;;;;14.70;3.45;;;;;;;15.80;100.00;100910.81;5075477;28;20600;-65
2023/08/26 08:20:31;;;;;;;11.88;3.25;;;;;;;15.96;100.00;100900.78;5075235;28;20036;-66
2023/08/26 08:22:57;;;;;;;14.20;3.30;;;;;;;16.09;100.00;100903.22;5075423;28;20028;-66
2023/08/26 08:25:22;;;;;;;13.48;3.08;;;;;;;16.10;100.00;100897.84;5075282;28;20037;-63
2023/08/26 08:27:48;;;;;;;8.77;2.80;;;;;;;16.21;100.00;100898.56;5068107;28;20107;-60
2023/08/26 08:30:13;;;;;;;9.98;2.80;;;;;;;16.30;100.00;100896.63;5068525;28;20476;-60
2023/08/26 08:32:39;;;;;;;12.68;2.92;;;;;;;16.36;100.00;100902.72;5070939;28;20020;-61
2023/08/26 08:35:05;;;;;;;14.48;3.00;;;;;;;16.52;100.00;100899.78;5071322;28;20017;-65
2023/08/26 08:37:30;;;;;;;9.65;2.83;;;;;;;16.71;100.00;100901.16;5069022;28;20041;-62
2023/08/26 08:39:56;;;;;;;10.32;2.70;;;;;;;17.01;100.00;100904.13;5074789;28;20135;-62
2023/08/26 08:42:22;;;;;;;11.68;2.80;;;;;;;17.50;100.00;100898.59;5075261;28;20139;-61
2023/08/26 08:44:48;;;;;;;12.57;2.88;;;;;;;17.93;100.00;100902.94;5071631;28;20028;-62
2023/08/26 08:47:13;;;;;;;9.95;2.58;;;;;;;18.23;100.00;100903.06;5073375;28;20024;-62
2023/08/26 08:49:41;;;;;;;12.18;2.70;;;;;;;18.56;100.00;100900.38;5073617;28;20020;-62
2023/08/26 08:52:07;;;;;;;13.10;2.55;;;;;;;18.84;100.00;100903.13;5071132;28;20422;-64
2023/08/26 08:54:34;;;;;;;10.65;2.60;;;;;;;18.81;100.00;100900.56;5070115;28;20041;-63
2023/08/26 08:57:00;;;;;;;9.55;2.60;;;;;;;19.06;100.00;100907.91;5072152;28;20562;-63
2023/08/26 08:59:27;;;;;;;11.50;2.97;;;;;;;18.97;100.00;100919.78;5074063;28;20016;-64
2023/08/26 09:01:57;;;;;;;9.73;2.70;;;;;;;18.89;100.00;100911.09;5074156;28;20119;-64
2023/08/26 09:04:24;;;;;;;8.02;2.60;;;;;;;18.57;100.00;100915.53;5074510;28;20036;-62
2023/08/26 09:06:50;;;;;;;8.77;2.50;;;;;;;18.78;100.00;100920.25;5074321;28;20024;-63
2023/08/26 09:09:16;;;;;;;9.70;2.60;;;;;;;18.59;100.00;100927.06;5072980;28;20025;-62
2023/08/26 09:11:42;;;;;;;9.25;2.40;;;;;;;18.90;100.00;100927.13;5074556;28;20060;-65
2023/08/26 09:14:07;;;;;;;8.90;2.40;;;;;;;19.45;100.00;100921.88;5073772;28;20060;-62
2023/08/26 09:16:37;;;;;;;8.27;2.45;;;;;;;19.09;100.00;100930.13;5073300;28;20055;-65
2023/08/26 09:19:10;;;;;;;9.75;2.63;;;;;;;19.00;100.00;100933.06;5071300;28;20092;-61
2023/08/26 09:21:42;;;;;;;12.00;2.80;;;;;;;19.08;100.00;100933.72;5064203;28;20090;-62
2023/08/26 09:24:15;;;;;;;8.30;2.40;;;;;;;18.92;100.00;100927.94;5073914;28;20131;-66
2023/08/26 09:26:58;;;;;;;11.52;2.50;;;;;;;18.96;100.00;100924.25;5073873;28;20111;-61
2023/08/26 09:29:24;;;;;;;9.75;2.50;;;;;;;19.03;100.00;100924.94;5070117;28;20460;-65
2023/08/26 09:31:52;;;;;;;6.13;2.38;;;;;;;18.86;100.00;100933.47;5073689;28;20039;-70
2023/08/26 09:34:32;;;;;;;9.45;2.30;;;;;;;18.86;100.00;100935.22;5069983;28;20029;-71
2023/08/26 09:36:59;;;;;;;10.35;2.58;;;;;;;18.63;100.00;100934.09;5071281;28;20430;-74
2023/08/26 09:39:25;;;;;;;8.88;2.42;;;;;;;18.51;100.00;100931.75;5072257;28;20386;-70
2023/08/26 09:41:53;;;;;;;7.38;2.45;;;;;;;18.75;100.00;100940.91;5073632;28;20105;-69
2023/08/26 09:44:21;;;;;;;9.63;2.30;;;;;;;19.17;100.00;100943.28;5069903;28;20469;-70
2023/08/26 09:46:46;;;;;;;11.73;2.53;;;;;;;19.81;100.00;100950.28;5073491;28;20025;-69
2023/08/26 09:49:16;;;;;;;6.03;2.30;;;;;;;20.43;100.00;100951.78;5073707;28;20074;-70
2023/08/26 09:51:46;;;;;;;8.90;2.47;;;;;;;21.05;100.00;100952.25;5073306;28;20033;-69
2023/08/26 09:54:14;;;;;;;9.43;2.38;;;;;;;21.48;100.00;100942.56;5073613;28;20099;-70
2023/08/26 09:56:40;;;;;;;11.63;2.42;;;;;;;21.31;100.00;100942.34;5073590;28;20013;-70
2023/08/26 09:59:06;;;;;;;8.15;2.40;;;;;;;21.32;100.00;100944.06;5073278;28;20051;-70
2023/08/26 10:01:34;;;;;;;5.53;2.10;;;;;;;20.57;100.00;100950.41;5073231;28;20043;-70
2023/08/26 10:04:12;;;;;;;10.13;2.38;;;;;;;20.13;100.00;100943.00;5072891;28;20086;-70
2023/08/26 10:06:52;;;;;;;7.88;2.20;;;;;;;20.70;100.00;100951.75;5069748;28;20348;-70
2023/08/26 10:10:00;;;;;;;9.10;2.53;;;;;;;20.59;100.00;100935.13;5070857;28;20101;-69
2023/08/26 10:12:33;;;;;;;7.78;2.30;;;;;;;21.73;100.00;100938.91;5071344;28;20028;-70
2023/08/26 10:15:01;;;;;;;7.90;2.40;;;;;;;21.30;100.00;100949.50;5072946;28;20052;-70
2023/08/26 10:17:29;;;;;;;10.65;2.65;;;;;;;21.36;100.00;100949.28;5073016;28;20020;-70
2023/08/26 10:19:55;;;;;;;8.93;2.25;;;;;;;22.17;100.00;100949.63;5072955;28;20033;-69
2023/08/26 10:22:21;;;;;;;9.98;2.20;;;;;;;23.14;100.00;100949.91;5073312;28;20098;-71
2023/08/26 10:24:46;;;;;;;8.05;2.33;;;;;;;23.64;100.00;100953.84;5073042;28;20479;-71
2023/08/26 10:27:12;;;;;;;7.72;2.15;;;;;;;23.49;100.00;100960.84;5072784;28;20111;-70
2023/08/26 10:29:39;;;;;;;8.57;2.25;;;;;;;22.03;100.00;100963.69;5073213;28;20033;-70
2023/08/26 10:32:18;;;;;;;6.75;2.15;;;;;;;21.98;100.00;100956.72;5072912;28;20028;-70
2023/08/26 10:34:54;;;;;;;7.15;2.03;;;;;;;22.47;100.00;100938.53;5069669;28;20032;-71
2023/08/26 10:37:22;;;;;;;7.38;2.00;;;;;;;23.18;100.00;100943.41;5072820;28;20052;-70
2023/08/26 10:39:48;;;;;;;7.28;2.10;;;;;;;22.86;100.00;100950.25;5072827;28;20038;-71
2023/08/26 10:42:18;;;;;;;9.60;2.20;;;;;;;21.71;100.00;100956.91;5072729;28;20469;-71
2023/08/26 10:44:53;;;;;;;6.88;2.10;;;;;;;22.61;100.00;100938.75;5072678;28;20033;-71
2023/08/26 10:47:45;;;;;;;7.43;2.20;;;;;;;23.51;100.00;100945.47;5072750;28;20023;-70
2023/08/26 10:50:22;;;;;;;6.35;2.05;;;;;;;22.48;100.00;100939.38;5068684;28;20074;-69
2023/08/26 10:52:53;;;;;;;8.02;2.10;;;;;;;23.15;100.00;100947.16;5069799;28;20028;-69
2023/08/26 10:55:32;;;;;;;3.47;1.85;;;;;;;23.10;100.00;100938.38;5073094;28;20404;-69
2023/08/26 10:58:18;;;;;;;9.63;2.08;;;;;;;22.40;100.00;100926.25;5072650;28;20456;-68
2023/08/26 11:00:45;;;;;;;4.78;1.98;;;;;;;22.75;100.00;100921.13;5067576;28;20146;-70
2023/08/26 11:03:11;;;;;;;6.90;2.10;;;;;;;23.77;100.00;100933.41;5072945;28;20426;-70
2023/08/26 11:05:39;;;;;;;7.07;1.90;;;;;;;24.62;100.00;100937.22;5072449;28;20035;-70
2023/08/26 11:08:05;;;;;;;8.02;2.00;;;;;;;23.76;85.94;100928.06;5072838;28;20028;-70